createdAt,value
2017-12-12T00:01:41.667Z,95562.34
2017-12-12T00:04:09.175Z,95561.09
2017-12-12T00:06:36.677Z,95563.56
2017-12-12T00:09:04.172Z,95568.83
2017-12-12T00:11:31.670Z,95572.97
2017-12-12T00:13:59.157Z,95578.66
2017-12-12T00:16:26.649Z,95589.80
2017-12-12T00:18:54.153Z,95588.97
2017-12-12T00:21:21.636Z,95601.95
2017-12-12T00:23:49.127Z,95619.86
2017-12-12T00:26:16.642Z,95621.44
2017-12-12T00:28:44.129Z,95626.73
2017-12-12T00:31:11.621Z,95630.89
2017-12-12T00:33:39.122Z,95638.16
2017-12-12T00:36:06.637Z,95639.52
2017-12-12T00:38:34.134Z,95649.47
2017-12-12T00:41:01.633Z,95650.05
2017-12-12T00:43:29.248Z,95657.15
2017-12-12T00:45:56.739Z,95659.27
2017-12-12T00:48:24.229Z,95669.44
2017-12-12T00:50:51.738Z,95674.46
2017-12-12T00:53:19.244Z,95700.33
2017-12-12T00:55:46.739Z,95720.72
2017-12-12T00:58:14.222Z,95716.87
2017-12-12T01:00:41.729Z,95729.96
2017-12-12T01:03:10.152Z,95734.03
2017-12-12T01:05:37.658Z,95742.03
2017-12-12T01:08:05.176Z,95742.23
2017-12-12T01:10:32.760Z,95747.56
2017-12-12T01:13:00.250Z,95749.16
2017-12-12T01:15:27.758Z,95750.75
2017-12-12T01:17:55.240Z,95749.77
2017-12-12T01:20:22.749Z,95759.80
2017-12-12T01:22:50.249Z,95764.70
2017-12-12T01:25:17.744Z,95780.50
2017-12-12T01:27:45.261Z,95780.14
2017-12-12T01:30:12.761Z,95778.61
2017-12-12T01:32:40.266Z,95773.91
2017-12-12T01:35:07.749Z,95773.00
2017-12-12T01:37:35.238Z,95783.11
2017-12-12T01:40:02.728Z,95795.17
2017-12-12T01:42:30.314Z,95817.54
2017-12-12T01:44:57.799Z,95817.03
2017-12-12T01:47:25.303Z,95817.63
2017-12-12T01:49:52.809Z,95826.14
2017-12-12T01:52:20.289Z,95830.80
2017-12-12T01:54:47.784Z,95849.16
2017-12-12T01:57:15.269Z,95844.73
2017-12-12T01:59:42.853Z,95867.25
2017-12-12T02:02:10.369Z,95861.16
2017-12-12T02:04:37.868Z,95862.54
2017-12-12T02:07:05.361Z,95860.70
2017-12-12T02:09:32.847Z,95852.73
2017-12-12T02:12:00.358Z,95860.98
2017-12-12T02:14:27.874Z,95872.71
2017-12-12T02:16:55.380Z,95884.98
2017-12-12T02:19:22.897Z,95883.64
2017-12-12T02:21:50.395Z,95899.11
2017-12-12T02:24:17.881Z,95900.22
2017-12-12T02:26:45.414Z,95927.66
2017-12-12T02:29:12.924Z,95934.18
2017-12-12T02:31:40.424Z,95965.94
2017-12-12T02:34:09.990Z,95963.58
2017-12-12T02:36:37.487Z,95982.97
2017-12-12T02:39:04.978Z,95970.28
2017-12-12T02:41:32.460Z,95992.05
2017-12-12T02:43:59.966Z,95997.20
2017-12-12T02:46:27.454Z,96004.95
2017-12-12T02:48:54.977Z,96024.09
2017-12-12T02:51:22.463Z,96009.97
2017-12-12T02:53:49.977Z,96019.58
2017-12-12T02:56:17.485Z,96036.74
2017-12-12T02:58:44.973Z,96051.30
2017-12-12T03:01:12.502Z,96050.28
2017-12-12T03:03:40.001Z,96062.38
2017-12-12T03:06:07.545Z,96091.14
2017-12-12T03:08:35.041Z,96097.70
2017-12-12T03:11:02.538Z,96108.00
2017-12-12T03:13:30.036Z,96096.30
2017-12-12T03:15:57.528Z,96100.14
2017-12-12T03:18:25.032Z,96116.45
2017-12-12T03:20:52.509Z,96136.42
2017-12-12T03:23:20.005Z,96145.30
2017-12-12T03:25:47.487Z,96165.98
2017-12-12T03:28:15.037Z,96176.19
2017-12-12T03:30:42.549Z,96188.60
2017-12-12T03:33:10.032Z,96205.41
2017-12-12T03:35:37.547Z,96196.04
2017-12-12T03:38:05.041Z,96201.50
2017-12-12T03:40:32.570Z,96220.56
2017-12-12T03:43:00.060Z,96225.14
2017-12-12T03:45:27.549Z,96244.45
2017-12-12T03:47:55.029Z,96259.36
2017-12-12T03:50:22.530Z,96270.23
2017-12-12T03:52:50.281Z,96284.86
2017-12-12T03:55:17.779Z,96294.11
2017-12-12T03:57:45.272Z,96307.94
2017-12-12T04:00:12.752Z,96322.63
2017-12-12T04:02:40.261Z,96326.02
2017-12-12T04:05:07.769Z,96337.11
2017-12-12T04:07:35.252Z,96358.16
2017-12-12T04:10:02.770Z,96357.31
2017-12-12T04:12:30.428Z,96368.14
2017-12-12T04:14:57.913Z,96382.66
2017-12-12T04:17:25.417Z,96363.73
2017-12-12T04:19:52.898Z,96386.23
2017-12-12T04:22:20.385Z,96401.38
2017-12-12T04:24:47.868Z,96397.01
2017-12-12T04:27:15.366Z,96433.77
2017-12-12T04:29:42.851Z,96440.98
2017-12-12T04:32:10.392Z,96449.11
2017-12-12T04:34:37.914Z,96460.28
2017-12-12T04:37:05.399Z,96474.42
2017-12-12T04:39:32.919Z,96482.30
2017-12-12T04:42:00.404Z,96487.55
2017-12-12T04:44:27.939Z,96500.71
2017-12-12T04:46:55.427Z,96509.00
2017-12-12T04:49:22.906Z,96518.69
2017-12-12T04:51:50.441Z,96527.06
2017-12-12T04:54:17.982Z,96537.80
2017-12-12T04:56:45.512Z,96555.73
2017-12-12T04:59:13.004Z,96551.79
2017-12-12T05:01:40.494Z,96581.63
2017-12-12T05:04:07.982Z,96585.56
2017-12-12T05:06:35.479Z,96598.02
2017-12-12T05:09:02.994Z,96605.02
2017-12-12T05:11:30.480Z,96630.13
2017-12-12T05:13:57.997Z,96644.33
2017-12-12T05:16:25.497Z,96662.04
2017-12-12T05:18:53.054Z,96668.88
2017-12-12T05:21:22.470Z,96675.97
2017-12-12T05:23:52.801Z,96684.27
2017-12-12T05:26:21.246Z,96685.28
2017-12-12T05:28:49.011Z,96690.98
2017-12-12T05:31:16.506Z,96694.87
2017-12-12T05:33:50.377Z,96690.75
2017-12-12T05:36:17.853Z,96704.91
2017-12-12T05:38:45.348Z,96699.09
2017-12-12T05:41:12.847Z,96721.38
2017-12-12T05:43:40.344Z,96737.05
2017-12-12T05:46:07.865Z,96741.11
2017-12-12T05:48:35.360Z,96761.72
2017-12-12T05:51:02.881Z,96774.03
2017-12-12T05:53:30.415Z,96770.16
2017-12-12T05:55:57.954Z,96789.25
2017-12-12T05:58:25.693Z,96790.03
2017-12-12T06:00:53.185Z,96807.08
2017-12-12T06:03:20.669Z,96820.96
2017-12-12T06:05:48.199Z,96838.33
2017-12-12T06:08:15.696Z,96852.84
2017-12-12T06:10:43.186Z,96860.45
2017-12-12T06:13:10.675Z,96860.81
2017-12-12T06:15:38.233Z,96877.01
2017-12-12T06:18:05.725Z,96892.97
2017-12-12T06:20:33.209Z,96898.39
2017-12-12T06:23:00.741Z,96907.61
2017-12-12T06:25:28.239Z,96910.06
2017-12-12T06:27:55.969Z,96919.83
2017-12-12T06:30:23.490Z,96920.73
2017-12-12T06:32:50.988Z,96937.30
2017-12-12T06:35:18.784Z,96952.70
2017-12-12T06:37:46.298Z,96943.89
2017-12-12T06:40:13.788Z,96944.61
2017-12-12T06:42:41.301Z,96949.43
2017-12-12T06:45:08.817Z,96956.08
2017-12-12T06:47:36.407Z,96954.47
2017-12-12T06:50:03.931Z,96956.46
2017-12-12T06:52:31.445Z,96955.94
2017-12-12T06:54:58.941Z,96957.69
2017-12-12T06:57:26.669Z,96966.93
2017-12-12T06:59:54.176Z,96969.05
2017-12-12T07:02:21.675Z,96979.69
2017-12-12T07:04:49.201Z,96986.42
2017-12-12T07:07:16.723Z,96997.03
2017-12-12T07:09:44.395Z,97008.15
2017-12-12T07:12:12.061Z,97017.89
2017-12-12T07:14:39.617Z,97023.29
2017-12-12T07:17:07.138Z,97025.88
2017-12-12T07:19:34.651Z,97046.74
2017-12-12T07:22:02.190Z,97053.70
2017-12-12T07:24:29.714Z,97062.33
2017-12-12T07:26:57.224Z,97062.59
2017-12-12T07:29:24.781Z,97067.88
2017-12-12T07:31:52.286Z,97069.20
2017-12-12T07:34:19.786Z,97077.16
2017-12-12T07:36:47.298Z,97092.56
2017-12-12T07:39:14.783Z,97100.77
2017-12-12T07:41:42.302Z,97113.95
2017-12-12T07:44:09.781Z,97116.31
2017-12-12T07:46:37.278Z,97116.30
2017-12-12T07:49:05.298Z,97118.66
2017-12-12T07:51:32.782Z,97120.92
2017-12-12T07:54:00.270Z,97126.66
2017-12-12T07:56:27.793Z,97129.45
2017-12-12T07:58:55.282Z,97141.59
2017-12-12T08:01:22.757Z,97140.54
2017-12-12T08:03:50.269Z,97149.27
2017-12-12T08:06:17.821Z,97147.66
2017-12-12T08:08:45.325Z,97153.83
2017-12-12T08:11:12.883Z,97166.25
2017-12-12T08:13:40.361Z,97175.91
2017-12-12T08:16:07.901Z,97184.68
2017-12-12T08:18:35.401Z,97187.41
2017-12-12T08:21:02.892Z,97194.33
2017-12-12T08:23:30.404Z,97191.78
2017-12-12T08:25:57.890Z,97194.56
2017-12-12T08:28:25.393Z,97192.84
2017-12-12T08:30:52.901Z,97199.93
2017-12-12T08:33:20.387Z,97209.17
2017-12-12T08:35:47.893Z,97221.77
2017-12-12T08:38:15.378Z,97234.19
2017-12-12T08:40:42.903Z,97235.08
2017-12-12T08:43:10.464Z,97245.64
2017-12-12T08:45:38.002Z,97244.87
2017-12-12T08:48:05.534Z,97257.28
2017-12-12T08:50:33.140Z,97266.11
2017-12-12T08:53:00.633Z,97267.70
2017-12-12T08:55:28.114Z,97269.87
2017-12-12T08:57:55.617Z,97278.48
2017-12-12T09:00:23.118Z,97289.81
2017-12-12T09:02:50.604Z,97287.30
2017-12-12T09:05:18.108Z,97295.06
2017-12-12T09:07:45.614Z,97297.08
2017-12-12T09:10:13.134Z,97295.57
2017-12-12T09:12:40.646Z,97307.21
2017-12-12T09:15:08.149Z,97310.17
2017-12-12T09:17:35.708Z,97312.55
2017-12-12T09:20:03.201Z,97320.46
2017-12-12T09:22:30.709Z,97326.45
2017-12-12T09:24:58.190Z,97325.78
2017-12-12T09:27:25.670Z,97333.23
2017-12-12T09:29:53.156Z,97334.98
2017-12-12T09:32:20.708Z,97351.44
2017-12-12T09:34:48.210Z,97358.03
2017-12-12T09:37:15.694Z,97362.19
2017-12-12T09:39:43.176Z,97365.28
2017-12-12T09:42:10.782Z,97369.81
2017-12-12T09:44:38.294Z,97375.29
2017-12-12T09:47:05.779Z,97382.13
2017-12-12T09:49:33.283Z,97383.40
2017-12-12T09:52:00.798Z,97388.72
2017-12-12T09:54:28.284Z,97389.36
2017-12-12T09:56:55.801Z,97388.33
2017-12-12T09:59:23.317Z,97395.70
2017-12-12T10:01:50.814Z,97386.98
2017-12-12T10:04:18.288Z,97400.00
2017-12-12T10:06:45.790Z,97406.49
2017-12-12T10:09:13.284Z,97405.58
2017-12-12T10:11:40.777Z,97399.74
2017-12-12T10:14:08.261Z,97409.73
2017-12-12T10:16:35.783Z,97403.23
2017-12-12T10:19:03.273Z,97407.54
2017-12-12T10:21:30.782Z,97408.44
2017-12-12T10:23:58.334Z,97404.27
2017-12-12T10:26:25.893Z,97402.22
2017-12-12T10:28:53.417Z,97410.31
2017-12-12T10:31:20.967Z,97411.61
2017-12-12T10:33:48.533Z,97413.89
2017-12-12T10:36:16.143Z,97419.58
2017-12-12T10:38:43.689Z,97419.47
2017-12-12T10:41:11.181Z,97429.41
2017-12-12T10:43:38.687Z,97432.85
2017-12-12T10:46:06.258Z,97432.83
2017-12-12T10:48:33.785Z,97431.02
2017-12-12T10:51:01.315Z,97434.45
2017-12-12T10:53:28.833Z,97427.89
2017-12-12T10:55:56.316Z,97428.12
2017-12-12T10:58:23.856Z,97426.19
2017-12-12T11:00:51.350Z,97434.30
2017-12-12T11:03:18.842Z,97439.16
2017-12-12T11:05:46.321Z,97442.41
2017-12-12T11:08:13.812Z,97452.43
2017-12-12T11:10:41.397Z,97451.17
2017-12-12T11:13:08.910Z,97437.20
2017-12-12T11:15:36.420Z,97446.08
2017-12-12T11:18:03.908Z,97448.98
2017-12-12T11:20:31.417Z,97460.61
2017-12-12T11:22:58.917Z,97460.51
2017-12-12T11:25:26.410Z,97465.92
2017-12-12T11:27:53.922Z,97474.08
2017-12-12T11:30:21.445Z,97469.34
2017-12-12T11:32:48.924Z,97464.89
2017-12-12T11:35:16.453Z,97468.84
2017-12-12T11:37:43.958Z,97467.31
2017-12-12T11:40:11.453Z,97469.23
2017-12-12T11:42:38.981Z,97472.86
2017-12-12T11:45:06.476Z,97471.37
2017-12-12T11:47:33.962Z,97469.37
2017-12-12T11:50:01.469Z,97482.34
2017-12-12T11:52:28.999Z,97485.02
2017-12-12T11:54:56.488Z,97482.07
2017-12-12T11:57:23.978Z,97482.67
2017-12-12T11:59:51.470Z,97485.89
2017-12-12T12:02:19.038Z,97491.09
2017-12-12T12:04:46.526Z,97489.91
2017-12-12T12:07:14.020Z,97487.20
2017-12-12T12:09:41.516Z,97492.77
2017-12-12T12:12:09.015Z,97496.18
2017-12-12T12:14:36.509Z,97497.68
2017-12-12T12:17:04.014Z,97504.17
2017-12-12T12:19:31.513Z,97503.93
2017-12-12T12:21:59.041Z,97509.00
2017-12-12T12:24:26.533Z,97506.15
2017-12-12T12:26:54.028Z,97513.09
2017-12-12T12:29:21.521Z,97514.64
2017-12-12T12:31:49.816Z,97510.92
2017-12-12T12:34:17.322Z,97516.05
2017-12-12T12:36:44.849Z,97519.36
2017-12-12T12:39:12.380Z,97518.03
2017-12-12T12:41:40.744Z,97515.98
2017-12-12T12:44:08.276Z,97513.14
2017-12-12T12:46:35.807Z,97520.06
2017-12-12T12:49:03.321Z,97522.41
2017-12-12T12:51:30.815Z,97522.84
2017-12-12T12:53:58.329Z,97535.62
2017-12-12T12:56:25.875Z,97530.84
2017-12-12T12:58:53.364Z,97534.11
2017-12-12T13:01:20.948Z,97529.47
2017-12-12T13:03:48.395Z,97530.47
2017-12-12T13:06:15.890Z,97540.32
2017-12-12T13:08:43.421Z,97528.11
2017-12-12T13:11:10.933Z,97541.64
2017-12-12T13:13:38.421Z,97537.19
2017-12-12T13:16:06.068Z,97537.12
2017-12-12T13:18:33.585Z,97545.66
2017-12-12T13:21:01.094Z,97548.11
2017-12-12T13:23:29.504Z,97547.27
2017-12-12T13:25:57.029Z,97558.48
2017-12-12T13:28:24.520Z,97556.50
2017-12-12T13:30:52.558Z,97557.52
2017-12-12T13:33:20.036Z,97551.19
2017-12-12T13:35:47.513Z,97555.11
2017-12-12T13:38:15.016Z,97569.91
2017-12-12T13:40:42.506Z,97563.24
2017-12-12T13:43:10.034Z,97575.33
2017-12-12T13:45:37.550Z,97568.66
2017-12-12T13:48:05.064Z,97583.55
2017-12-12T13:50:32.550Z,97581.59
2017-12-12T13:53:00.044Z,97580.45
2017-12-12T13:55:27.541Z,97588.09
2017-12-12T13:57:55.018Z,97579.17
2017-12-12T14:00:22.512Z,97586.61
2017-12-12T14:02:50.027Z,97594.77
2017-12-12T14:05:17.530Z,97601.25
2017-12-12T14:07:45.018Z,97604.16
2017-12-12T14:10:12.519Z,97611.56
2017-12-12T14:12:40.017Z,97616.44
2017-12-12T14:15:07.523Z,97620.28
2017-12-12T14:17:35.030Z,97626.28
2017-12-12T14:20:02.510Z,97626.05
2017-12-12T14:22:30.009Z,97630.39
2017-12-12T14:24:57.539Z,97632.00
2017-12-12T14:27:25.024Z,97633.88
2017-12-12T14:29:52.513Z,97643.77
2017-12-12T14:32:20.013Z,97641.00
2017-12-12T14:34:47.509Z,97645.54
2017-12-12T14:37:15.018Z,97651.68
2017-12-12T14:39:42.535Z,97659.33
2017-12-12T14:42:10.036Z,97666.00
2017-12-12T14:44:37.573Z,97671.63
2017-12-12T14:47:05.065Z,97679.80
2017-12-12T14:49:32.545Z,97691.03
2017-12-12T14:52:00.046Z,97694.39
2017-12-12T14:54:28.583Z,97706.14
2017-12-12T14:56:56.203Z,97705.22
2017-12-12T14:59:23.716Z,97707.61
2017-12-12T15:01:51.668Z,97712.31
2017-12-12T15:04:19.157Z,97719.91
2017-12-12T15:06:46.641Z,97726.05
2017-12-12T15:09:14.178Z,97734.20
2017-12-12T15:11:41.682Z,97739.17
2017-12-12T15:14:09.160Z,97735.80
2017-12-12T15:16:37.229Z,97734.82
2017-12-12T15:19:04.730Z,97744.59
2017-12-12T15:21:32.233Z,97746.70
2017-12-12T15:23:59.714Z,97754.03
2017-12-12T15:26:27.227Z,97757.12
2017-12-12T15:28:54.730Z,97760.47
2017-12-12T15:31:22.220Z,97769.81
2017-12-12T15:33:49.733Z,97779.27
2017-12-12T15:36:18.198Z,97786.89
2017-12-12T15:38:45.728Z,97799.44
2017-12-12T15:41:13.240Z,97798.66
2017-12-12T15:43:40.726Z,97807.30
2017-12-12T15:46:08.233Z,97804.14
2017-12-12T15:48:35.757Z,97818.39
2017-12-12T15:51:03.257Z,97820.36
2017-12-12T15:53:30.775Z,97823.45
2017-12-12T15:55:58.264Z,97828.05
2017-12-12T15:58:25.846Z,97827.29
2017-12-12T16:00:53.642Z,97833.60
2017-12-12T16:03:21.126Z,97830.05
2017-12-12T16:05:48.654Z,97843.38
2017-12-12T16:08:16.161Z,97850.03
2017-12-12T16:10:44.597Z,97850.08
2017-12-12T16:13:12.096Z,97851.98
2017-12-12T16:15:39.641Z,97858.22
2017-12-12T16:18:07.142Z,97853.28
2017-12-12T16:20:34.648Z,97858.03
2017-12-12T16:23:02.326Z,97859.36
2017-12-12T16:25:29.818Z,97865.27
2017-12-12T16:27:57.308Z,97855.83
2017-12-12T16:30:24.843Z,97852.17
2017-12-12T16:32:52.553Z,97871.27
2017-12-12T16:35:20.043Z,97867.53
2017-12-12T16:37:47.525Z,97867.34
2017-12-12T16:40:15.033Z,97867.95
2017-12-12T16:42:42.537Z,97867.69
2017-12-12T16:45:10.048Z,97868.09
2017-12-12T16:47:37.547Z,97880.38
2017-12-12T16:50:05.045Z,97874.02
2017-12-12T16:52:32.560Z,97880.86
2017-12-12T16:55:00.050Z,97878.32
2017-12-12T16:57:27.561Z,97884.92
2017-12-12T16:59:55.063Z,97887.44
2017-12-12T17:02:22.583Z,97895.27
2017-12-12T17:04:50.096Z,97902.81
2017-12-12T17:07:17.638Z,97907.39
2017-12-12T17:09:45.141Z,97915.28
2017-12-12T17:12:12.645Z,97906.48
2017-12-12T17:14:40.160Z,97907.20
2017-12-12T17:17:07.800Z,97915.28
2017-12-12T17:19:35.306Z,97922.02
2017-12-12T17:22:02.835Z,97922.31
2017-12-12T17:24:30.439Z,97919.20
2017-12-12T17:26:57.940Z,97929.55
2017-12-12T17:29:25.565Z,97925.78
2017-12-12T17:31:53.068Z,97934.20
2017-12-12T17:34:20.622Z,97939.19
2017-12-12T17:36:48.144Z,97938.83
2017-12-12T17:39:15.649Z,97942.41
2017-12-12T17:41:43.151Z,97941.09
2017-12-12T17:44:10.650Z,97946.13
2017-12-12T17:46:38.145Z,97945.46
2017-12-12T17:49:05.666Z,97950.27
2017-12-12T17:51:33.190Z,97950.87
2017-12-12T17:54:00.743Z,97954.00
2017-12-12T17:56:28.317Z,97961.11
2017-12-12T17:58:55.835Z,97960.87
2017-12-12T18:01:23.388Z,97966.96
2017-12-12T18:03:50.879Z,97968.32
2017-12-12T18:06:18.408Z,97977.02
2017-12-12T18:08:45.962Z,97974.02
2017-12-12T18:11:13.526Z,97977.80
2017-12-12T18:13:41.059Z,97985.25
2017-12-12T18:16:08.633Z,97984.94
2017-12-12T18:18:36.161Z,97981.73
2017-12-12T18:21:03.785Z,97977.80
2017-12-12T18:23:31.314Z,97985.00
2017-12-12T18:25:58.852Z,97995.22
2017-12-12T18:28:26.420Z,97995.95
2017-12-12T18:30:53.969Z,97995.97
2017-12-12T18:33:21.520Z,97998.06
2017-12-12T18:35:49.070Z,98009.31
2017-12-12T18:38:16.605Z,98009.91
2017-12-12T18:40:44.128Z,98016.85
2017-12-12T18:43:11.680Z,98023.26
2017-12-12T18:45:39.239Z,98028.69
2017-12-12T18:48:06.822Z,98035.61
2017-12-12T18:50:34.399Z,98032.43
2017-12-12T18:53:01.936Z,98036.41
2017-12-12T18:55:29.485Z,98037.69
2017-12-12T18:57:57.007Z,98039.70
2017-12-12T19:00:24.761Z,98045.55
2017-12-12T19:02:52.479Z,98047.75
2017-12-12T19:05:20.028Z,98048.53
2017-12-12T19:07:47.566Z,98048.66
2017-12-12T19:10:15.095Z,98057.58
2017-12-12T19:12:42.613Z,98052.02
2017-12-12T19:15:10.134Z,98055.84
2017-12-12T19:17:37.626Z,98053.97
2017-12-12T19:20:05.151Z,98051.80
2017-12-12T19:22:32.685Z,98057.72
2017-12-12T19:25:00.177Z,98057.53
2017-12-12T19:27:27.845Z,98062.16
2017-12-12T19:29:55.385Z,98066.30
2017-12-12T19:32:22.881Z,98072.91
2017-12-12T19:34:50.430Z,98083.11
2017-12-12T19:37:17.963Z,98081.14
2017-12-12T19:39:45.461Z,98085.98
2017-12-12T19:42:12.997Z,98097.59
2017-12-12T19:44:40.533Z,98093.52
2017-12-12T19:47:08.096Z,98096.67
2017-12-12T19:49:35.611Z,98106.31
2017-12-12T19:52:03.142Z,98109.48
2017-12-12T19:54:30.722Z,98110.99
2017-12-12T19:56:58.221Z,98110.41
2017-12-12T19:59:25.810Z,98103.67
2017-12-12T20:01:53.336Z,98111.98
2017-12-12T20:04:20.886Z,98118.41
2017-12-12T20:06:48.429Z,98120.70
2017-12-12T20:09:15.982Z,98118.91
2017-12-12T20:11:43.481Z,98123.77
2017-12-12T20:14:11.056Z,98126.00
2017-12-12T20:16:38.611Z,98122.34
2017-12-12T20:19:06.168Z,98131.31
2017-12-12T20:21:33.729Z,98131.14
2017-12-12T20:24:01.286Z,98128.20
2017-12-12T20:26:28.858Z,98131.17
2017-12-12T20:28:56.561Z,98127.13
2017-12-12T20:31:24.109Z,98135.02
2017-12-12T20:33:51.633Z,98138.34
2017-12-12T20:36:19.184Z,98144.38
2017-12-12T20:38:46.742Z,98146.93
2017-12-12T20:41:14.398Z,98148.66
2017-12-12T20:43:41.933Z,98145.78
2017-12-12T20:46:09.456Z,98144.66
2017-12-12T20:48:36.994Z,98152.36
2017-12-12T20:51:04.520Z,98146.20
2017-12-12T20:53:32.089Z,98148.35
2017-12-12T20:55:59.629Z,98149.83
2017-12-12T20:58:27.160Z,98143.11
2017-12-12T21:00:54.710Z,98151.88
2017-12-12T21:03:22.244Z,98146.77
2017-12-12T21:05:49.786Z,98151.34
2017-12-12T21:08:17.301Z,98158.96
2017-12-12T21:10:44.820Z,98165.43
2017-12-12T21:13:12.358Z,98166.57
2017-12-12T21:15:39.892Z,98169.79
2017-12-12T21:18:07.532Z,98170.39
2017-12-12T21:20:35.032Z,98174.45
2017-12-12T21:23:02.528Z,98182.09
2017-12-12T21:25:30.067Z,98176.20
2017-12-12T21:27:57.588Z,98187.53
2017-12-12T21:30:25.152Z,98183.05
2017-12-12T21:32:52.688Z,98185.81
2017-12-12T21:35:20.202Z,98180.63
2017-12-12T21:37:47.733Z,98183.45
2017-12-12T21:40:15.289Z,98182.14
2017-12-12T21:42:42.824Z,98179.72
2017-12-12T21:45:10.324Z,98181.79
2017-12-12T21:47:37.831Z,98183.58
2017-12-12T21:50:05.353Z,98192.63
2017-12-12T21:52:32.914Z,98180.39
2017-12-12T21:55:00.439Z,98186.02
2017-12-12T21:57:27.941Z,98194.56
2017-12-12T21:59:55.452Z,98194.19
2017-12-12T22:02:22.950Z,98202.00
2017-12-12T22:04:50.494Z,98200.90
2017-12-12T22:07:18.026Z,98204.09
2017-12-12T22:09:45.598Z,98203.27
2017-12-12T22:12:13.133Z,98193.30
2017-12-12T22:14:40.646Z,98197.16
2017-12-12T22:17:08.162Z,98201.52
2017-12-12T22:19:35.693Z,98197.53
2017-12-12T22:22:03.196Z,98192.97
2017-12-12T22:24:30.723Z,98196.33
2017-12-12T22:26:58.259Z,98201.02
2017-12-12T22:29:25.785Z,98195.00
2017-12-12T22:31:53.290Z,98202.38
2017-12-12T22:34:20.796Z,98197.77
2017-12-12T22:36:48.317Z,98199.45
2017-12-12T22:39:15.816Z,98199.24
2017-12-12T22:41:43.357Z,98197.69
2017-12-12T22:44:10.859Z,98205.02
2017-12-12T22:46:40.413Z,98204.23
2017-12-12T22:49:07.902Z,98208.53
2017-12-12T22:51:35.433Z,98209.63
2017-12-12T22:54:02.966Z,98197.56
2017-12-12T22:56:30.487Z,98198.94
2017-12-12T22:58:58.014Z,98196.82
2017-12-12T23:01:25.588Z,98192.09
2017-12-12T23:03:53.092Z,98195.22
2017-12-12T23:06:20.609Z,98193.83
2017-12-12T23:08:48.163Z,98192.34
2017-12-12T23:44:46.174Z,98191.37
2017-12-12T23:47:13.698Z,98198.06
2017-12-12T23:49:41.214Z,98199.90
2017-12-12T23:52:08.763Z,98202.53
2017-12-12T23:54:36.289Z,98206.00
2017-12-12T23:57:03.829Z,98202.20
2017-12-12T23:59:31.358Z,98205.41
